sensor_id;sensor_type;location;lat;lon;timestamp;P1;durP1;ratioP1;P2;durP2;ratioP2
61907;SDS011;47864;52.526;19.672;2022-08-20T00:00:31;28.13;;;19.33;;
61907;SDS011;47864;52.526;19.672;2022-08-20T00:02:39;33.95;;;20.65;;
61907;SDS011;47864;52.526;19.672;2022-08-20T00:04:43;31.02;;;20.10;;
61907;SDS011;47864;52.526;19.672;2022-08-20T00:06:44;28.27;;;19.67;;
61907;SDS011;47864;52.526;19.672;2022-08-20T00:08:46;36.78;;;22.15;;
61907;SDS011;47864;52.526;19.672;2022-08-20T00:10:49;27.63;;;19.83;;
61907;SDS011;47864;52.526;19.672;2022-08-20T00:12:56;36.55;;;20.38;;
61907;SDS011;47864;52.526;19.672;2022-08-20T00:14:58;41.97;;;20.95;;
61907;SDS011;47864;52.526;19.672;2022-08-20T00:17:00;31.35;;;19.30;;
61907;SDS011;47864;52.526;19.672;2022-08-20T00:19:06;33.97;;;20.27;;
61907;SDS011;47864;52.526;19.672;2022-08-20T00:21:10;30.88;;;19.52;;
61907;SDS011;47864;52.526;19.672;2022-08-20T00:23:19;33.05;;;20.77;;
61907;SDS011;47864;52.526;19.672;2022-08-20T00:25:22;30.05;;;18.67;;
61907;SDS011;47864;52.526;19.672;2022-08-20T00:27:26;32.53;;;19.42;;
61907;SDS011;47864;52.526;19.672;2022-08-20T00:29:28;31.90;;;19.08;;
61907;SDS011;47864;52.526;19.672;2022-08-20T00:31:30;29.17;;;18.50;;
61907;SDS011;47864;52.526;19.672;2022-08-20T00:33:32;29.38;;;19.00;;
61907;SDS011;47864;52.526;19.672;2022-08-20T00:35:35;30.40;;;19.17;;
61907;SDS011;47864;52.526;19.672;2022-08-20T00:37:40;34.72;;;21.27;;
61907;SDS011;47864;52.526;19.672;2022-08-20T00:39:43;37.53;;;20.93;;
61907;SDS011;47864;52.526;19.672;2022-08-20T00:41:44;32.63;;;19.88;;
61907;SDS011;47864;52.526;19.672;2022-08-20T00:43:51;32.80;;;19.77;;
61907;SDS011;47864;52.526;19.672;2022-08-20T00:46:07;30.55;;;19.92;;
61907;SDS011;47864;52.526;19.672;2022-08-20T00:48:12;30.77;;;19.73;;
61907;SDS011;47864;52.526;19.672;2022-08-20T00:50:16;32.38;;;19.65;;
61907;SDS011;47864;52.526;19.672;2022-08-20T00:52:20;32.92;;;19.80;;
61907;SDS011;47864;52.526;19.672;2022-08-20T00:54:24;33.50;;;19.92;;
61907;SDS011;47864;52.526;19.672;2022-08-20T00:56:29;37.50;;;20.95;;
61907;SDS011;47864;52.526;19.672;2022-08-20T00:58:33;36.15;;;20.60;;
61907;SDS011;47864;52.526;19.672;2022-08-20T01:00:38;32.85;;;20.95;;
61907;SDS011;47864;52.526;19.672;2022-08-20T01:02:43;35.75;;;20.90;;
61907;SDS011;47864;52.526;19.672;2022-08-20T01:04:46;35.20;;;21.33;;
61907;SDS011;47864;52.526;19.672;2022-08-20T01:06:48;37.15;;;21.65;;
61907;SDS011;47864;52.526;19.672;2022-08-20T01:08:50;39.95;;;21.90;;
61907;SDS011;47864;52.526;19.672;2022-08-20T01:10:53;34.92;;;20.52;;
61907;SDS011;47864;52.526;19.672;2022-08-20T01:12:56;36.38;;;19.42;;
61907;SDS011;47864;52.526;19.672;2022-08-20T01:15:00;40.28;;;21.60;;
61907;SDS011;47864;52.526;19.672;2022-08-20T01:17:05;36.78;;;21.05;;
61907;SDS011;47864;52.526;19.672;2022-08-20T01:19:08;39.33;;;21.33;;
61907;SDS011;47864;52.526;19.672;2022-08-20T01:21:30;42.47;;;22.30;;
61907;SDS011;47864;52.526;19.672;2022-08-20T01:23:48;30.92;;;19.63;;
61907;SDS011;47864;52.526;19.672;2022-08-20T01:25:59;39.47;;;21.05;;
61907;SDS011;47864;52.526;19.672;2022-08-20T01:28:04;41.33;;;21.05;;
61907;SDS011;47864;52.526;19.672;2022-08-20T01:30:06;36.00;;;20.88;;
61907;SDS011;47864;52.526;19.672;2022-08-20T01:32:09;40.75;;;21.15;;
61907;SDS011;47864;52.526;19.672;2022-08-20T01:34:13;42.40;;;20.27;;
61907;SDS011;47864;52.526;19.672;2022-08-20T01:36:17;39.50;;;22.33;;
61907;SDS011;47864;52.526;19.672;2022-08-20T01:38:24;37.00;;;20.88;;
61907;SDS011;47864;52.526;19.672;2022-08-20T01:42:46;43.05;;;20.42;;
61907;SDS011;47864;52.526;19.672;2022-08-20T01:44:59;32.03;;;20.38;;
61907;SDS011;47864;52.526;19.672;2022-08-20T01:47:38;33.22;;;19.27;;
61907;SDS011;47864;52.526;19.672;2022-08-20T01:51:42;31.60;;;19.95;;
61907;SDS011;47864;52.526;19.672;2022-08-20T01:53:49;35.58;;;21.58;;
61907;SDS011;47864;52.526;19.672;2022-08-20T01:55:53;36.47;;;20.77;;
61907;SDS011;47864;52.526;19.672;2022-08-20T01:57:55;43.75;;;22.25;;
61907;SDS011;47864;52.526;19.672;2022-08-20T01:59:58;37.17;;;20.80;;
61907;SDS011;47864;52.526;19.672;2022-08-20T02:02:00;41.90;;;21.50;;
61907;SDS011;47864;52.526;19.672;2022-08-20T02:04:03;28.85;;;18.48;;
61907;SDS011;47864;52.526;19.672;2022-08-20T02:06:15;55.03;;;24.35;;
61907;SDS011;47864;52.526;19.672;2022-08-20T02:08:19;47.10;;;22.27;;
61907;SDS011;47864;52.526;19.672;2022-08-20T02:10:21;36.72;;;21.67;;
61907;SDS011;47864;52.526;19.672;2022-08-20T02:12:23;32.65;;;20.55;;
61907;SDS011;47864;52.526;19.672;2022-08-20T02:14:26;40.00;;;23.48;;
61907;SDS011;47864;52.526;19.672;2022-08-20T02:16:30;41.92;;;23.02;;
61907;SDS011;47864;52.526;19.672;2022-08-20T02:18:34;49.65;;;24.30;;
61907;SDS011;47864;52.526;19.672;2022-08-20T02:20:36;43.45;;;24.40;;
61907;SDS011;47864;52.526;19.672;2022-08-20T02:22:50;52.53;;;24.45;;
61907;SDS011;47864;52.526;19.672;2022-08-20T02:24:55;47.72;;;22.85;;
61907;SDS011;47864;52.526;19.672;2022-08-20T02:26:57;49.15;;;25.35;;
61907;SDS011;47864;52.526;19.672;2022-08-20T02:29:00;37.97;;;21.73;;
61907;SDS011;47864;52.526;19.672;2022-08-20T02:31:09;44.05;;;26.10;;
61907;SDS011;47864;52.526;19.672;2022-08-20T02:33:12;39.38;;;22.92;;
61907;SDS011;47864;52.526;19.672;2022-08-20T02:35:16;40.15;;;23.00;;
61907;SDS011;47864;52.526;19.672;2022-08-20T02:37:18;70.57;;;26.55;;
61907;SDS011;47864;52.526;19.672;2022-08-20T02:39:20;34.72;;;21.00;;
61907;SDS011;47864;52.526;19.672;2022-08-20T02:41:22;36.42;;;22.33;;
61907;SDS011;47864;52.526;19.672;2022-08-20T02:43:24;36.13;;;21.00;;
61907;SDS011;47864;52.526;19.672;2022-08-20T02:45:26;35.58;;;21.98;;
61907;SDS011;47864;52.526;19.672;2022-08-20T02:47:29;34.78;;;20.15;;
61907;SDS011;47864;52.526;19.672;2022-08-20T02:49:31;36.75;;;21.98;;
61907;SDS011;47864;52.526;19.672;2022-08-20T02:51:32;37.33;;;21.50;;
61907;SDS011;47864;52.526;19.672;2022-08-20T02:53:35;47.28;;;26.58;;
61907;SDS011;47864;52.526;19.672;2022-08-20T02:55:39;45.85;;;23.65;;
61907;SDS011;47864;52.526;19.672;2022-08-20T02:57:41;39.17;;;22.00;;
61907;SDS011;47864;52.526;19.672;2022-08-20T02:59:44;55.90;;;29.15;;
61907;SDS011;47864;52.526;19.672;2022-08-20T03:01:46;51.85;;;28.73;;
61907;SDS011;47864;52.526;19.672;2022-08-20T03:04:01;51.42;;;27.15;;
61907;SDS011;47864;52.526;19.672;2022-08-20T03:06:05;57.53;;;25.42;;
61907;SDS011;47864;52.526;19.672;2022-08-20T03:08:09;47.13;;;24.27;;
61907;SDS011;47864;52.526;19.672;2022-08-20T03:10:12;44.25;;;25.30;;
61907;SDS011;47864;52.526;19.672;2022-08-20T03:12:14;53.60;;;25.02;;
61907;SDS011;47864;52.526;19.672;2022-08-20T03:14:15;47.63;;;24.00;;
61907;SDS011;47864;52.526;19.672;2022-08-20T03:16:17;44.92;;;24.40;;
61907;SDS011;47864;52.526;19.672;2022-08-20T03:18:20;44.70;;;24.45;;
61907;SDS011;47864;52.526;19.672;2022-08-20T03:20:23;43.28;;;23.75;;
61907;SDS011;47864;52.526;19.672;2022-08-20T03:22:26;45.17;;;24.08;;
61907;SDS011;47864;52.526;19.672;2022-08-20T03:24:28;44.25;;;23.98;;
61907;SDS011;47864;52.526;19.672;2022-08-20T03:26:30;47.90;;;27.50;;
61907;SDS011;47864;52.526;19.672;2022-08-20T03:28:32;49.90;;;26.73;;
61907;SDS011;47864;52.526;19.672;2022-08-20T03:30:34;49.65;;;27.02;;
61907;SDS011;47864;52.526;19.672;2022-08-20T03:32:37;48.95;;;26.98;;
61907;SDS011;47864;52.526;19.672;2022-08-20T03:34:39;55.47;;;27.23;;
61907;SDS011;47864;52.526;19.672;2022-08-20T03:36:41;48.85;;;26.42;;
61907;SDS011;47864;52.526;19.672;2022-08-20T03:38:43;57.00;;;27.33;;
61907;SDS011;47864;52.526;19.672;2022-08-20T03:40:45;56.60;;;26.95;;
61907;SDS011;47864;52.526;19.672;2022-08-20T03:42:48;42.33;;;25.25;;
61907;SDS011;47864;52.526;19.672;2022-08-20T03:44:50;54.88;;;25.67;;
61907;SDS011;47864;52.526;19.672;2022-08-20T03:46:59;49.65;;;25.42;;
61907;SDS011;47864;52.526;19.672;2022-08-20T03:49:04;66.40;;;28.08;;
61907;SDS011;47864;52.526;19.672;2022-08-20T03:51:06;45.65;;;25.20;;
61907;SDS011;47864;52.526;19.672;2022-08-20T03:53:09;50.17;;;26.33;;
61907;SDS011;47864;52.526;19.672;2022-08-20T03:55:15;53.95;;;25.48;;
61907;SDS011;47864;52.526;19.672;2022-08-20T03:57:16;54.22;;;25.27;;
61907;SDS011;47864;52.526;19.672;2022-08-20T03:59:19;43.40;;;23.30;;
61907;SDS011;47864;52.526;19.672;2022-08-20T04:01:20;51.72;;;24.13;;
61907;SDS011;47864;52.526;19.672;2022-08-20T04:03:42;40.28;;;22.55;;
61907;SDS011;47864;52.526;19.672;2022-08-20T04:05:44;54.08;;;24.75;;
61907;SDS011;47864;52.526;19.672;2022-08-20T04:07:46;50.10;;;26.70;;
61907;SDS011;47864;52.526;19.672;2022-08-20T04:09:48;44.58;;;25.90;;
61907;SDS011;47864;52.526;19.672;2022-08-20T04:11:50;48.45;;;25.88;;
61907;SDS011;47864;52.526;19.672;2022-08-20T04:13:52;54.10;;;26.02;;
61907;SDS011;47864;52.526;19.672;2022-08-20T04:15:54;54.75;;;26.45;;
61907;SDS011;47864;52.526;19.672;2022-08-20T04:17:57;46.75;;;25.80;;
61907;SDS011;47864;52.526;19.672;2022-08-20T04:20:01;38.50;;;22.70;;
61907;SDS011;47864;52.526;19.672;2022-08-20T04:22:04;42.47;;;25.02;;
61907;SDS011;47864;52.526;19.672;2022-08-20T04:24:07;43.83;;;25.00;;
61907;SDS011;47864;52.526;19.672;2022-08-20T04:26:24;49.63;;;26.25;;
61907;SDS011;47864;52.526;19.672;2022-08-20T04:28:26;48.05;;;25.92;;
61907;SDS011;47864;52.526;19.672;2022-08-20T04:30:28;33.47;;;22.30;;
61907;SDS011;47864;52.526;19.672;2022-08-20T04:32:30;37.80;;;24.88;;
61907;SDS011;47864;52.526;19.672;2022-08-20T04:34:32;37.72;;;22.83;;
61907;SDS011;47864;52.526;19.672;2022-08-20T04:36:35;40.83;;;23.30;;
61907;SDS011;47864;52.526;19.672;2022-08-20T04:38:36;38.33;;;22.92;;
61907;SDS011;47864;52.526;19.672;2022-08-20T04:40:50;42.00;;;23.70;;
61907;SDS011;47864;52.526;19.672;2022-08-20T04:42:52;38.65;;;23.70;;
61907;SDS011;47864;52.526;19.672;2022-08-20T04:44:54;38.60;;;23.55;;
61907;SDS011;47864;52.526;19.672;2022-08-20T04:46:57;42.80;;;24.42;;
61907;SDS011;47864;52.526;19.672;2022-08-20T04:48:59;40.90;;;23.05;;
61907;SDS011;47864;52.526;19.672;2022-08-20T04:51:01;37.35;;;21.65;;
61907;SDS011;47864;52.526;19.672;2022-08-20T04:53:04;37.47;;;22.77;;
61907;SDS011;47864;52.526;19.672;2022-08-20T04:55:09;39.65;;;22.23;;
61907;SDS011;47864;52.526;19.672;2022-08-20T04:57:11;36.53;;;21.80;;
61907;SDS011;47864;52.526;19.672;2022-08-20T04:59:13;30.08;;;20.63;;
61907;SDS011;47864;52.526;19.672;2022-08-20T05:01:15;35.90;;;21.02;;
61907;SDS011;47864;52.526;19.672;2022-08-20T05:03:17;32.08;;;20.58;;
61907;SDS011;47864;52.526;19.672;2022-08-20T05:05:19;30.25;;;20.48;;
61907;SDS011;47864;52.526;19.672;2022-08-20T05:07:21;30.40;;;20.30;;
61907;SDS011;47864;52.526;19.672;2022-08-20T05:09:23;34.95;;;21.13;;
61907;SDS011;47864;52.526;19.672;2022-08-20T05:11:25;30.33;;;20.60;;
61907;SDS011;47864;52.526;19.672;2022-08-20T05:13:37;33.22;;;20.35;;
61907;SDS011;47864;52.526;19.672;2022-08-20T05:15:38;33.38;;;19.98;;
61907;SDS011;47864;52.526;19.672;2022-08-20T05:17:41;32.85;;;19.80;;
61907;SDS011;47864;52.526;19.672;2022-08-20T05:19:43;36.30;;;20.35;;
61907;SDS011;47864;52.526;19.672;2022-08-20T05:21:45;31.80;;;19.98;;
61907;SDS011;47864;52.526;19.672;2022-08-20T05:23:47;34.40;;;20.65;;
61907;SDS011;47864;52.526;19.672;2022-08-20T05:25:49;32.78;;;19.75;;
61907;SDS011;47864;52.526;19.672;2022-08-20T05:27:54;30.50;;;19.58;;
61907;SDS011;47864;52.526;19.672;2022-08-20T05:30:06;192.43;;;127.50;;
61907;SDS011;47864;52.526;19.672;2022-08-20T05:32:13;53.15;;;42.42;;
61907;SDS011;47864;52.526;19.672;2022-08-20T05:34:15;127.82;;;86.75;;
61907;SDS011;47864;52.526;19.672;2022-08-20T05:36:17;81.93;;;61.15;;
61907;SDS011;47864;52.526;19.672;2022-08-20T05:38:23;109.35;;;74.00;;
61907;SDS011;47864;52.526;19.672;2022-08-20T05:40:27;60.58;;;44.97;;
61907;SDS011;47864;52.526;19.672;2022-08-20T05:42:29;28.33;;;24.05;;
61907;SDS011;47864;52.526;19.672;2022-08-20T05:44:31;28.80;;;19.65;;
61907;SDS011;47864;52.526;19.672;2022-08-20T05:46:32;33.22;;;21.38;;
61907;SDS011;47864;52.526;19.672;2022-08-20T05:48:34;22.98;;;15.80;;
61907;SDS011;47864;52.526;19.672;2022-08-20T05:50:40;25.42;;;17.67;;
61907;SDS011;47864;52.526;19.672;2022-08-20T05:52:44;26.48;;;17.73;;
61907;SDS011;47864;52.526;19.672;2022-08-20T05:54:46;25.17;;;18.50;;
61907;SDS011;47864;52.526;19.672;2022-08-20T05:56:47;23.15;;;16.77;;
61907;SDS011;47864;52.526;19.672;2022-08-20T05:58:50;28.10;;;17.58;;
61907;SDS011;47864;52.526;19.672;2022-08-20T06:00:52;26.35;;;17.70;;
61907;SDS011;47864;52.526;19.672;2022-08-20T06:02:55;31.13;;;19.63;;
61907;SDS011;47864;52.526;19.672;2022-08-20T06:04:57;24.77;;;17.40;;
61907;SDS011;47864;52.526;19.672;2022-08-20T06:07:04;29.92;;;19.38;;
61907;SDS011;47864;52.526;19.672;2022-08-20T06:09:08;26.77;;;18.00;;
61907;SDS011;47864;52.526;19.672;2022-08-20T06:11:10;28.67;;;17.80;;
61907;SDS011;47864;52.526;19.672;2022-08-20T06:13:11;23.90;;;16.17;;
61907;SDS011;47864;52.526;19.672;2022-08-20T06:15:14;27.02;;;16.73;;
61907;SDS011;47864;52.526;19.672;2022-08-20T06:17:16;31.33;;;19.45;;
61907;SDS011;47864;52.526;19.672;2022-08-20T06:19:22;27.02;;;17.38;;
61907;SDS011;47864;52.526;19.672;2022-08-20T06:21:26;25.30;;;17.40;;
61907;SDS011;47864;52.526;19.672;2022-08-20T06:23:28;25.42;;;16.35;;
61907;SDS011;47864;52.526;19.672;2022-08-20T06:25:51;24.63;;;15.98;;
61907;SDS011;47864;52.526;19.672;2022-08-20T06:27:53;23.98;;;16.83;;
61907;SDS011;47864;52.526;19.672;2022-08-20T06:29:54;27.77;;;16.23;;
61907;SDS011;47864;52.526;19.672;2022-08-20T06:31:56;23.45;;;17.23;;
61907;SDS011;47864;52.526;19.672;2022-08-20T06:33:58;21.20;;;17.35;;
61907;SDS011;47864;52.526;19.672;2022-08-20T06:36:00;24.90;;;17.45;;
61907;SDS011;47864;52.526;19.672;2022-08-20T06:38:02;30.67;;;17.30;;
61907;SDS011;47864;52.526;19.672;2022-08-20T06:40:08;26.55;;;17.17;;
61907;SDS011;47864;52.526;19.672;2022-08-20T06:42:13;29.17;;;21.05;;
61907;SDS011;47864;52.526;19.672;2022-08-20T06:44:21;28.17;;;21.90;;
61907;SDS011;47864;52.526;19.672;2022-08-20T06:46:23;29.77;;;24.10;;
61907;SDS011;47864;52.526;19.672;2022-08-20T06:48:24;25.08;;;18.00;;
61907;SDS011;47864;52.526;19.672;2022-08-20T06:50:28;23.35;;;16.42;;
61907;SDS011;47864;52.526;19.672;2022-08-20T06:52:33;23.30;;;17.02;;
61907;SDS011;47864;52.526;19.672;2022-08-20T06:54:53;23.27;;;16.20;;
61907;SDS011;47864;52.526;19.672;2022-08-20T06:56:55;20.95;;;16.80;;
61907;SDS011;47864;52.526;19.672;2022-08-20T06:58:57;22.95;;;16.08;;
61907;SDS011;47864;52.526;19.672;2022-08-20T07:01:00;19.15;;;14.68;;
61907;SDS011;47864;52.526;19.672;2022-08-20T07:03:10;20.92;;;16.13;;
61907;SDS011;47864;52.526;19.672;2022-08-20T07:05:12;22.40;;;15.88;;
61907;SDS011;47864;52.526;19.672;2022-08-20T07:07:15;26.08;;;14.45;;
61907;SDS011;47864;52.526;19.672;2022-08-20T07:09:20;17.58;;;13.88;;
61907;SDS011;47864;52.526;19.672;2022-08-20T07:11:22;24.13;;;15.38;;
61907;SDS011;47864;52.526;19.672;2022-08-20T07:13:28;21.35;;;14.70;;
61907;SDS011;47864;52.526;19.672;2022-08-20T07:15:30;22.73;;;14.25;;
61907;SDS011;47864;52.526;19.672;2022-08-20T07:17:33;23.55;;;14.13;;
61907;SDS011;47864;52.526;19.672;2022-08-20T07:19:35;24.23;;;14.75;;
61907;SDS011;47864;52.526;19.672;2022-08-20T07:21:37;20.45;;;12.93;;
61907;SDS011;47864;52.526;19.672;2022-08-20T07:23:39;42.80;;;19.15;;
61907;SDS011;47864;52.526;19.672;2022-08-20T07:25:42;24.05;;;13.77;;
61907;SDS011;47864;52.526;19.672;2022-08-20T07:27:44;18.92;;;13.05;;
61907;SDS011;47864;52.526;19.672;2022-08-20T07:29:48;22.15;;;13.05;;
61907;SDS011;47864;52.526;19.672;2022-08-20T07:31:51;22.38;;;14.25;;
61907;SDS011;47864;52.526;19.672;2022-08-20T07:33:53;25.85;;;14.13;;
61907;SDS011;47864;52.526;19.672;2022-08-20T07:35:56;21.38;;;12.40;;
61907;SDS011;47864;52.526;19.672;2022-08-20T07:37:59;17.55;;;11.70;;
61907;SDS011;47864;52.526;19.672;2022-08-20T07:40:01;22.08;;;13.35;;
61907;SDS011;47864;52.526;19.672;2022-08-20T07:42:03;19.38;;;12.75;;
61907;SDS011;47864;52.526;19.672;2022-08-20T07:44:05;23.80;;;12.00;;
61907;SDS011;47864;52.526;19.672;2022-08-20T07:46:07;22.33;;;11.65;;
61907;SDS011;47864;52.526;19.672;2022-08-20T07:48:11;15.18;;;10.65;;
61907;SDS011;47864;52.526;19.672;2022-08-20T07:50:31;18.25;;;11.30;;
61907;SDS011;47864;52.526;19.672;2022-08-20T07:52:33;14.60;;;10.02;;
61907;SDS011;47864;52.526;19.672;2022-08-20T07:54:35;17.05;;;10.65;;
61907;SDS011;47864;52.526;19.672;2022-08-20T07:56:37;15.20;;;11.38;;
61907;SDS011;47864;52.526;19.672;2022-08-20T07:58:43;19.60;;;10.55;;
61907;SDS011;47864;52.526;19.672;2022-08-20T08:00:47;19.70;;;11.20;;
61907;SDS011;47864;52.526;19.672;2022-08-20T08:02:49;16.98;;;11.13;;
61907;SDS011;47864;52.526;19.672;2022-08-20T08:04:51;15.43;;;10.88;;
61907;SDS011;47864;52.526;19.672;2022-08-20T08:06:52;16.23;;;11.10;;
61907;SDS011;47864;52.526;19.672;2022-08-20T08:09:03;13.57;;;10.65;;
61907;SDS011;47864;52.526;19.672;2022-08-20T08:11:07;20.15;;;13.45;;
61907;SDS011;47864;52.526;19.672;2022-08-20T08:13:09;25.95;;;14.35;;
61907;SDS011;47864;52.526;19.672;2022-08-20T08:15:18;16.60;;;11.88;;
61907;SDS011;47864;52.526;19.672;2022-08-20T08:17:25;18.48;;;10.82;;
61907;SDS011;47864;52.526;19.672;2022-08-20T08:19:28;18.83;;;10.38;;
61907;SDS011;47864;52.526;19.672;2022-08-20T08:21:34;15.50;;;10.50;;
61907;SDS011;47864;52.526;19.672;2022-08-20T08:23:35;18.00;;;11.40;;
61907;SDS011;47864;52.526;19.672;2022-08-20T08:25:40;14.07;;;10.02;;
61907;SDS011;47864;52.526;19.672;2022-08-20T08:27:43;22.17;;;11.20;;
61907;SDS011;47864;52.526;19.672;2022-08-20T08:29:44;17.10;;;11.57;;
61907;SDS011;47864;52.526;19.672;2022-08-20T08:31:46;27.35;;;12.45;;
61907;SDS011;47864;52.526;19.672;2022-08-20T08:33:48;22.55;;;12.45;;
61907;SDS011;47864;52.526;19.672;2022-08-20T08:35:50;19.27;;;10.77;;
61907;SDS011;47864;52.526;19.672;2022-08-20T08:37:52;17.65;;;10.90;;
61907;SDS011;47864;52.526;19.672;2022-08-20T08:39:54;15.15;;;9.98;;
61907;SDS011;47864;52.526;19.672;2022-08-20T08:41:56;14.63;;;10.27;;
61907;SDS011;47864;52.526;19.672;2022-08-20T08:44:03;18.48;;;10.77;;
61907;SDS011;47864;52.526;19.672;2022-08-20T08:46:08;16.70;;;10.45;;
61907;SDS011;47864;52.526;19.672;2022-08-20T08:48:12;14.38;;;10.70;;
61907;SDS011;47864;52.526;19.672;2022-08-20T08:50:29;17.63;;;10.32;;
61907;SDS011;47864;52.526;19.672;2022-08-20T08:52:53;16.67;;;10.38;;
61907;SDS011;47864;52.526;19.672;2022-08-20T08:54:59;17.48;;;12.75;;
61907;SDS011;47864;52.526;19.672;2022-08-20T08:57:05;21.80;;;11.75;;
61907;SDS011;47864;52.526;19.672;2022-08-20T08:59:08;22.23;;;11.40;;
61907;SDS011;47864;52.526;19.672;2022-08-20T09:01:12;21.08;;;10.20;;
61907;SDS011;47864;52.526;19.672;2022-08-20T09:03:36;18.70;;;10.55;;
61907;SDS011;47864;52.526;19.672;2022-08-20T09:07:48;16.13;;;11.27;;
61907;SDS011;47864;52.526;19.672;2022-08-20T09:09:54;18.05;;;11.10;;
61907;SDS011;47864;52.526;19.672;2022-08-20T09:12:01;21.15;;;10.52;;
61907;SDS011;47864;52.526;19.672;2022-08-20T09:14:10;27.10;;;11.68;;
61907;SDS011;47864;52.526;19.672;2022-08-20T09:16:13;16.63;;;10.90;;
61907;SDS011;47864;52.526;19.672;2022-08-20T09:18:15;19.33;;;11.43;;
61907;SDS011;47864;52.526;19.672;2022-08-20T09:20:17;15.13;;;10.48;;
61907;SDS011;47864;52.526;19.672;2022-08-20T09:22:20;17.02;;;10.32;;
61907;SDS011;47864;52.526;19.672;2022-08-20T09:24:23;15.55;;;10.63;;
61907;SDS011;47864;52.526;19.672;2022-08-20T09:26:25;20.95;;;12.40;;
61907;SDS011;47864;52.526;19.672;2022-08-20T09:28:29;20.65;;;11.00;;
61907;SDS011;47864;52.526;19.672;2022-08-20T09:30:35;15.70;;;11.65;;
61907;SDS011;47864;52.526;19.672;2022-08-20T09:32:38;15.32;;;11.77;;
61907;SDS011;47864;52.526;19.672;2022-08-20T09:34:42;16.10;;;11.43;;
61907;SDS011;47864;52.526;19.672;2022-08-20T09:36:45;20.20;;;12.20;;
61907;SDS011;47864;52.526;19.672;2022-08-20T09:38:46;13.90;;;11.13;;
61907;SDS011;47864;52.526;19.672;2022-08-20T09:40:48;17.27;;;11.50;;
61907;SDS011;47864;52.526;19.672;2022-08-20T09:42:50;29.40;;;14.77;;
61907;SDS011;47864;52.526;19.672;2022-08-20T09:44:52;19.25;;;11.57;;
61907;SDS011;47864;52.526;19.672;2022-08-20T09:46:55;17.67;;;11.77;;
61907;SDS011;47864;52.526;19.672;2022-08-20T09:48:57;23.45;;;12.10;;
61907;SDS011;47864;52.526;19.672;2022-08-20T09:50:59;20.02;;;12.23;;
61907;SDS011;47864;52.526;19.672;2022-08-20T09:53:02;23.13;;;12.73;;
61907;SDS011;47864;52.526;19.672;2022-08-20T09:55:10;16.92;;;12.30;;
61907;SDS011;47864;52.526;19.672;2022-08-20T09:57:16;24.60;;;13.85;;
61907;SDS011;47864;52.526;19.672;2022-08-20T09:59:19;20.13;;;12.15;;
61907;SDS011;47864;52.526;19.672;2022-08-20T10:01:21;16.70;;;12.05;;
61907;SDS011;47864;52.526;19.672;2022-08-20T10:03:23;23.80;;;12.68;;
61907;SDS011;47864;52.526;19.672;2022-08-20T10:05:25;17.70;;;12.63;;
61907;SDS011;47864;52.526;19.672;2022-08-20T10:07:27;26.58;;;14.35;;
61907;SDS011;47864;52.526;19.672;2022-08-20T10:09:29;23.25;;;11.95;;
61907;SDS011;47864;52.526;19.672;2022-08-20T10:11:31;23.88;;;14.13;;
61907;SDS011;47864;52.526;19.672;2022-08-20T10:13:33;23.00;;;12.82;;
61907;SDS011;47864;52.526;19.672;2022-08-20T10:15:35;18.10;;;12.35;;
61907;SDS011;47864;52.526;19.672;2022-08-20T10:17:40;17.60;;;11.65;;
61907;SDS011;47864;52.526;19.672;2022-08-20T10:19:43;16.08;;;12.10;;
61907;SDS011;47864;52.526;19.672;2022-08-20T10:21:45;17.13;;;12.40;;
61907;SDS011;47864;52.526;19.672;2022-08-20T10:23:47;18.95;;;12.50;;
61907;SDS011;47864;52.526;19.672;2022-08-20T10:25:49;18.35;;;12.07;;
61907;SDS011;47864;52.526;19.672;2022-08-20T10:27:50;18.38;;;12.13;;
61907;SDS011;47864;52.526;19.672;2022-08-20T10:29:52;19.65;;;12.82;;
61907;SDS011;47864;52.526;19.672;2022-08-20T10:31:55;19.60;;;12.40;;
61907;SDS011;47864;52.526;19.672;2022-08-20T10:33:57;16.65;;;12.38;;
61907;SDS011;47864;52.526;19.672;2022-08-20T10:36:09;20.88;;;12.48;;
61907;SDS011;47864;52.526;19.672;2022-08-20T10:38:13;18.90;;;12.02;;
61907;SDS011;47864;52.526;19.672;2022-08-20T10:40:14;17.98;;;12.20;;
61907;SDS011;47864;52.526;19.672;2022-08-20T10:42:17;18.23;;;11.82;;
61907;SDS011;47864;52.526;19.672;2022-08-20T10:44:18;17.83;;;11.82;;
61907;SDS011;47864;52.526;19.672;2022-08-20T10:46:20;17.60;;;11.63;;
61907;SDS011;47864;52.526;19.672;2022-08-20T10:48:22;24.27;;;11.65;;
61907;SDS011;47864;52.526;19.672;2022-08-20T10:50:25;15.07;;;11.32;;
61907;SDS011;47864;52.526;19.672;2022-08-20T10:52:30;16.02;;;11.27;;
61907;SDS011;47864;52.526;19.672;2022-08-20T10:54:32;29.65;;;23.33;;
61907;SDS011;47864;52.526;19.672;2022-08-20T10:56:34;65.75;;;47.03;;
61907;SDS011;47864;52.526;19.672;2022-08-20T10:58:36;61.03;;;41.25;;
61907;SDS011;47864;52.526;19.672;2022-08-20T11:00:41;24.08;;;16.65;;
61907;SDS011;47864;52.526;19.672;2022-08-20T11:02:43;20.92;;;12.30;;
61907;SDS011;47864;52.526;19.672;2022-08-20T11:04:45;19.63;;;12.05;;
61907;SDS011;47864;52.526;19.672;2022-08-20T11:06:47;20.00;;;11.93;;
61907;SDS011;47864;52.526;19.672;2022-08-20T11:08:49;21.83;;;15.23;;
61907;SDS011;47864;52.526;19.672;2022-08-20T11:10:53;25.10;;;17.83;;
61907;SDS011;47864;52.526;19.672;2022-08-20T11:12:55;19.00;;;12.88;;
61907;SDS011;47864;52.526;19.672;2022-08-20T11:14:57;18.08;;;11.82;;
61907;SDS011;47864;52.526;19.672;2022-08-20T11:16:59;17.15;;;11.77;;
61907;SDS011;47864;52.526;19.672;2022-08-20T11:19:01;20.05;;;11.85;;
61907;SDS011;47864;52.526;19.672;2022-08-20T11:21:03;18.88;;;12.50;;
61907;SDS011;47864;52.526;19.672;2022-08-20T11:23:08;16.45;;;11.90;;
61907;SDS011;47864;52.526;19.672;2022-08-20T11:25:10;18.17;;;11.93;;
61907;SDS011;47864;52.526;19.672;2022-08-20T11:27:18;15.85;;;10.73;;
61907;SDS011;47864;52.526;19.672;2022-08-20T11:29:28;17.60;;;11.57;;
61907;SDS011;47864;52.526;19.672;2022-08-20T11:31:34;21.30;;;11.63;;
61907;SDS011;47864;52.526;19.672;2022-08-20T11:33:36;18.95;;;11.43;;
61907;SDS011;47864;52.526;19.672;2022-08-20T11:35:37;18.65;;;11.20;;
61907;SDS011;47864;52.526;19.672;2022-08-20T11:37:49;16.55;;;10.77;;
61907;SDS011;47864;52.526;19.672;2022-08-20T11:39:51;15.75;;;11.32;;
61907;SDS011;47864;52.526;19.672;2022-08-20T11:41:53;14.63;;;10.68;;
61907;SDS011;47864;52.526;19.672;2022-08-20T11:43:55;17.05;;;11.73;;
61907;SDS011;47864;52.526;19.672;2022-08-20T11:46:17;14.88;;;11.23;;
61907;SDS011;47864;52.526;19.672;2022-08-20T11:48:19;14.65;;;10.88;;
61907;SDS011;47864;52.526;19.672;2022-08-20T11:50:22;18.50;;;10.85;;
61907;SDS011;47864;52.526;19.672;2022-08-20T11:52:24;16.95;;;11.52;;
61907;SDS011;47864;52.526;19.672;2022-08-20T11:54:29;14.82;;;10.98;;
61907;SDS011;47864;52.526;19.672;2022-08-20T11:56:31;16.08;;;10.93;;
61907;SDS011;47864;52.526;19.672;2022-08-20T11:58:33;14.70;;;11.10;;
61907;SDS011;47864;52.526;19.672;2022-08-20T12:00:35;15.15;;;11.05;;